sensor_id;sensor_type;location;lat;lon;timestamp;pressure;altitude;pressure_sealevel;temperature;humidity
6028;BME280;3042;43.194;27.646;2023-05-24T00:01:47;101300.03;;;20.45;100.00
6028;BME280;3042;43.194;27.646;2023-05-24T00:04:15;101287.84;;;20.52;100.00
6028;BME280;3042;43.194;27.646;2023-05-24T00:06:43;101282.59;;;20.53;100.00
6028;BME280;3042;43.194;27.646;2023-05-24T00:09:10;101289.50;;;20.43;100.00
6028;BME280;3042;43.194;27.646;2023-05-24T00:11:38;101292.00;;;20.33;100.00
6028;BME280;3042;43.194;27.646;2023-05-24T00:14:06;101297.19;;;20.28;100.00
6028;BME280;3042;43.194;27.646;2023-05-24T00:16:33;101306.66;;;20.17;100.00
6028;BME280;3042;43.194;27.646;2023-05-24T00:19:01;101297.97;;;20.21;100.00
6028;BME280;3042;43.194;27.646;2023-05-24T00:21:28;101300.47;;;20.13;100.00
6028;BME280;3042;43.194;27.646;2023-05-24T00:23:56;101297.84;;;20.12;100.00
6028;BME280;3042;43.194;27.646;2023-05-24T00:26:23;101296.19;;;20.20;100.00
6028;BME280;3042;43.194;27.646;2023-05-24T00:28:51;101121.59;;;19.15;100.00
6028;BME280;3042;43.194;27.646;2023-05-24T00:31:19;101291.03;;;20.26;100.00
6028;BME280;3042;43.194;27.646;2023-05-24T00:33:47;101287.56;;;20.29;100.00
6028;BME280;3042;43.194;27.646;2023-05-24T00:36:14;101304.06;;;20.18;100.00
6028;BME280;3042;43.194;27.646;2023-05-24T00:38:41;101300.59;;;20.21;100.00
6028;BME280;3042;43.194;27.646;2023-05-24T00:41:08;101296.25;;;20.24;100.00
6028;BME280;3042;43.194;27.646;2023-05-24T00:43:36;101292.84;;;20.30;100.00
6028;BME280;3042;43.194;27.646;2023-05-24T00:46:14;101294.56;;;20.28;100.00
6028;BME280;3042;43.194;27.646;2023-05-24T00:48:44;101291.06;;;20.29;100.00
6028;BME280;3042;43.194;27.646;2023-05-24T00:51:12;101294.63;;;20.34;100.00
6028;BME280;3042;43.194;27.646;2023-05-24T00:53:40;101299.88;;;20.33;100.00
6028;BME280;3042;43.194;27.646;2023-05-24T00:56:08;101218.75;;;19.84;100.00
6028;BME280;3042;43.194;27.646;2023-05-24T00:58:35;101302.69;;;20.47;100.00
6028;BME280;3042;43.194;27.646;2023-05-24T01:01:02;101296.38;;;20.32;100.00
6028;BME280;3042;43.194;27.646;2023-05-24T01:03:30;101310.25;;;20.25;100.00
6028;BME280;3042;43.194;27.646;2023-05-24T01:06:02;101306.03;;;20.35;100.00
6028;BME280;3042;43.194;27.646;2023-05-24T01:08:42;100676.34;;;16.65;100.00
6028;BME280;3042;43.194;27.646;2023-05-24T01:11:18;101099.16;;;19.33;100.00
6028;BME280;3042;43.194;27.646;2023-05-24T01:13:53;101293.97;;;20.49;100.00
6028;BME280;3042;43.194;27.646;2023-05-24T01:16:28;101284.34;;;20.50;100.00
6028;BME280;3042;43.194;27.646;2023-05-24T01:19:04;101276.56;;;20.56;100.00
6028;BME280;3042;43.194;27.646;2023-05-24T01:21:47;101278.41;;;20.63;100.00
6028;BME280;3042;43.194;27.646;2023-05-24T01:24:27;101279.31;;;20.65;100.00
6028;BME280;3042;43.194;27.646;2023-05-24T01:27:04;101283.59;;;20.60;100.00
6028;BME280;3042;43.194;27.646;2023-05-24T01:29:34;101274.13;;;20.73;100.00
6028;BME280;3042;43.194;27.646;2023-05-24T01:32:01;101276.84;;;20.80;100.00
6028;BME280;3042;43.194;27.646;2023-05-24T01:34:29;101272.47;;;20.82;100.00
6028;BME280;3042;43.194;27.646;2023-05-24T01:36:56;101270.78;;;20.87;100.00
6028;BME280;3042;43.194;27.646;2023-05-24T01:39:25;101270.88;;;20.97;100.00
6028;BME280;3042;43.194;27.646;2023-05-24T01:42:01;101270.94;;;21.03;100.00
6028;BME280;3042;43.194;27.646;2023-05-24T01:44:35;101275.41;;;21.10;100.00
6028;BME280;3042;43.194;27.646;2023-05-24T01:47:11;101129.25;;;20.31;100.00
6028;BME280;3042;43.194;27.646;2023-05-24T01:49:48;101272.78;;;21.13;100.00
6028;BME280;3042;43.194;27.646;2023-05-24T01:52:18;101122.16;;;20.24;100.00
6028;BME280;3042;43.194;27.646;2023-05-24T01:54:51;101276.38;;;21.21;100.00
6028;BME280;3042;43.194;27.646;2023-05-24T01:57:20;101281.66;;;21.24;100.00
6028;BME280;3042;43.194;27.646;2023-05-24T01:59:50;101286.06;;;21.30;100.00
6028;BME280;3042;43.194;27.646;2023-05-24T02:02:18;101287.88;;;21.34;100.00
6028;BME280;3042;43.194;27.646;2023-05-24T02:04:45;100796.00;;;18.51;100.00
6028;BME280;3042;43.194;27.646;2023-05-24T02:07:12;101275.66;;;21.39;100.00
6028;BME280;3042;43.194;27.646;2023-05-24T02:09:39;101278.34;;;21.41;100.00
6028;BME280;3042;43.194;27.646;2023-05-24T02:12:08;101240.50;;;21.26;100.00
6028;BME280;3042;43.194;27.646;2023-05-24T02:14:35;101290.59;;;21.42;100.00
6028;BME280;3042;43.194;27.646;2023-05-24T02:17:05;101042.22;;;19.88;100.00
6028;BME280;3042;43.194;27.646;2023-05-24T02:19:32;101290.53;;;21.39;100.00
6028;BME280;3042;43.194;27.646;2023-05-24T02:22:01;101287.13;;;21.46;100.00
6028;BME280;3042;43.194;27.646;2023-05-24T02:24:28;101271.38;;;21.49;100.00
6028;BME280;3042;43.194;27.646;2023-05-24T02:26:55;101151.47;;;20.61;100.00
6028;BME280;3042;43.194;27.646;2023-05-24T02:29:22;101299.22;;;21.28;100.00
6028;BME280;3042;43.194;27.646;2023-05-24T02:31:50;101306.06;;;21.11;100.00
6028;BME280;3042;43.194;27.646;2023-05-24T02:34:22;101272.69;;;21.01;100.00
6028;BME280;3042;43.194;27.646;2023-05-24T02:36:50;101303.53;;;21.23;100.00
6028;BME280;3042;43.194;27.646;2023-05-24T02:39:18;101307.03;;;21.19;100.00
6028;BME280;3042;43.194;27.646;2023-05-24T02:41:46;101320.66;;;20.84;100.00
6028;BME280;3042;43.194;27.646;2023-05-24T02:44:13;101324.13;;;20.80;100.00
6028;BME280;3042;43.194;27.646;2023-05-24T02:46:40;101322.53;;;20.93;100.00
6028;BME280;3042;43.194;27.646;2023-05-24T02:49:07;101323.44;;;21.00;100.00
6028;BME280;3042;43.194;27.646;2023-05-24T02:51:36;101226.53;;;20.47;100.00
6028;BME280;3042;43.194;27.646;2023-05-24T02:54:03;101140.44;;;20.18;100.00
6028;BME280;3042;43.194;27.646;2023-05-24T02:56:31;101306.16;;;21.20;100.00
6028;BME280;3042;43.194;27.646;2023-05-24T02:58:59;101314.81;;;21.10;100.00
6028;BME280;3042;43.194;27.646;2023-05-24T03:01:26;101312.31;;;21.22;100.00
6028;BME280;3042;43.194;27.646;2023-05-24T03:03:53;101313.22;;;21.27;100.00
6028;BME280;3042;43.194;27.646;2023-05-24T03:06:20;101309.78;;;21.35;100.00
6028;BME280;3042;43.194;27.646;2023-05-24T03:08:49;101309.06;;;21.48;100.00
6028;BME280;3042;43.194;27.646;2023-05-24T03:11:16;101282.50;;;21.23;100.00
6028;BME280;3042;43.194;27.646;2023-05-24T03:13:46;101308.19;;;21.49;100.00
6028;BME280;3042;43.194;27.646;2023-05-24T03:16:14;101310.78;;;21.44;100.00
6028;BME280;3042;43.194;27.646;2023-05-24T03:18:41;101316.00;;;21.40;100.00
6028;BME280;3042;43.194;27.646;2023-05-24T03:21:08;101313.44;;;21.46;100.00
6028;BME280;3042;43.194;27.646;2023-05-24T03:23:36;101313.44;;;21.49;100.00
6028;BME280;3042;43.194;27.646;2023-05-24T03:26:04;101307.38;;;21.56;100.00
6028;BME280;3042;43.194;27.646;2023-05-24T03:28:31;101186.59;;;20.72;100.00
6028;BME280;3042;43.194;27.646;2023-05-24T03:31:00;101318.78;;;21.58;100.00
6028;BME280;3042;43.194;27.646;2023-05-24T03:33:27;101297.66;;;21.49;100.00
6028;BME280;3042;43.194;27.646;2023-05-24T03:35:54;101315.41;;;21.71;100.00
6028;BME280;3042;43.194;27.646;2023-05-24T03:38:21;101175.44;;;20.98;100.00
6028;BME280;3042;43.194;27.646;2023-05-24T03:40:52;101311.13;;;21.89;100.00
6028;BME280;3042;43.194;27.646;2023-05-24T03:43:21;101310.28;;;21.93;100.00
6028;BME280;3042;43.194;27.646;2023-05-24T03:45:48;101317.34;;;21.97;100.00
6028;BME280;3042;43.194;27.646;2023-05-24T03:48:15;101316.50;;;22.01;100.00
6028;BME280;3042;43.194;27.646;2023-05-24T03:50:45;101318.28;;;22.10;100.00
6028;BME280;3042;43.194;27.646;2023-05-24T03:53:12;101310.50;;;22.21;100.00
6028;BME280;3042;43.194;27.646;2023-05-24T03:55:39;101285.94;;;22.28;100.00
6028;BME280;3042;43.194;27.646;2023-05-24T03:58:06;101301.84;;;22.46;100.00
6028;BME280;3042;43.194;27.646;2023-05-24T04:00:35;101328.84;;;22.13;100.00
6028;BME280;3042;43.194;27.646;2023-05-24T04:03:02;101338.84;;;21.45;100.00
6028;BME280;3042;43.194;27.646;2023-05-24T04:05:31;101340.59;;;21.46;100.00
6028;BME280;3042;43.194;27.646;2023-05-24T04:07:58;101257.09;;;21.19;100.00
6028;BME280;3042;43.194;27.646;2023-05-24T04:10:25;101334.81;;;21.89;100.00
6028;BME280;3042;43.194;27.646;2023-05-24T04:12:52;101329.75;;;22.15;100.00
6028;BME280;3042;43.194;27.646;2023-05-24T04:15:24;101321.97;;;22.35;100.00
6028;BME280;3042;43.194;27.646;2023-05-24T04:17:53;101320.25;;;22.45;100.00
6028;BME280;3042;43.194;27.646;2023-05-24T04:20:20;101326.34;;;22.33;100.00
6028;BME280;3042;43.194;27.646;2023-05-24T04:22:49;101328.19;;;22.46;100.00
6028;BME280;3042;43.194;27.646;2023-05-24T04:25:17;101315.94;;;22.58;100.00
6028;BME280;3042;43.194;27.646;2023-05-24T04:27:44;101314.19;;;22.66;100.00
6028;BME280;3042;43.194;27.646;2023-05-24T04:30:13;101259.69;;;22.45;100.00
6028;BME280;3042;43.194;27.646;2023-05-24T04:32:41;101328.34;;;22.83;100.00
6028;BME280;3042;43.194;27.646;2023-05-24T04:35:10;101328.34;;;22.95;100.00
6028;BME280;3042;43.194;27.646;2023-05-24T04:37:38;101221.06;;;22.39;100.00
6028;BME280;3042;43.194;27.646;2023-05-24T04:40:06;100737.94;;;19.82;100.00
6028;BME280;3042;43.194;27.646;2023-05-24T04:42:34;101324.03;;;23.22;100.00
6028;BME280;3042;43.194;27.646;2023-05-24T04:45:01;101300.31;;;23.19;100.00
6028;BME280;3042;43.194;27.646;2023-05-24T04:47:28;101311.78;;;23.61;100.00
6028;BME280;3042;43.194;27.646;2023-05-24T04:49:56;101324.13;;;23.77;100.00
6028;BME280;3042;43.194;27.646;2023-05-24T04:52:24;101309.00;;;24.41;100.00
6028;BME280;3042;43.194;27.646;2023-05-24T04:54:52;101041.81;;;23.51;100.00
6028;BME280;3042;43.194;27.646;2023-05-24T04:57:20;101300.91;;;26.00;100.00
6028;BME280;3042;43.194;27.646;2023-05-24T04:59:47;101278.63;;;26.89;100.00
6028;BME280;3042;43.194;27.646;2023-05-24T05:02:14;101177.47;;;27.12;100.00
6028;BME280;3042;43.194;27.646;2023-05-24T05:04:42;101268.63;;;28.54;100.00
6028;BME280;3042;43.194;27.646;2023-05-24T05:07:09;101268.28;;;29.45;100.00
6028;BME280;3042;43.194;27.646;2023-05-24T05:09:37;101267.63;;;29.72;100.00
6028;BME280;3042;43.194;27.646;2023-05-24T05:12:06;101241.22;;;30.25;100.00
6028;BME280;3042;43.194;27.646;2023-05-24T05:14:33;101192.78;;;30.68;100.00
6028;BME280;3042;43.194;27.646;2023-05-24T05:17:02;101163.94;;;31.08;100.00
6028;BME280;3042;43.194;27.646;2023-05-24T05:19:30;101229.06;;;31.81;100.00
6028;BME280;3042;43.194;27.646;2023-05-24T05:21:58;101116.00;;;31.05;100.00
6028;BME280;3042;43.194;27.646;2023-05-24T05:24:28;101234.50;;;32.03;100.00
6028;BME280;3042;43.194;27.646;2023-05-24T05:26:57;101225.13;;;32.38;100.00
6028;BME280;3042;43.194;27.646;2023-05-24T05:29:24;101135.16;;;31.66;100.00
6028;BME280;3042;43.194;27.646;2023-05-24T05:31:57;101245.22;;;31.78;100.00
6028;BME280;3042;43.194;27.646;2023-05-24T05:34:24;101294.31;;;31.22;100.00
6028;BME280;3042;43.194;27.646;2023-05-24T05:36:53;101315.19;;;30.51;100.00
6028;BME280;3042;43.194;27.646;2023-05-24T05:39:20;101176.22;;;28.99;100.00
6028;BME280;3042;43.194;27.646;2023-05-24T05:41:50;101324.88;;;29.18;100.00
6028;BME280;3042;43.194;27.646;2023-05-24T05:44:19;101339.28;;;28.67;100.00
6028;BME280;3042;43.194;27.646;2023-05-24T05:46:46;101192.84;;;27.44;100.00
6028;BME280;3042;43.194;27.646;2023-05-24T05:49:18;101355.50;;;28.07;100.00
6028;BME280;3042;43.194;27.646;2023-05-24T05:51:48;101093.88;;;26.32;100.00
6028;BME280;3042;43.194;27.646;2023-05-24T05:54:17;101359.69;;;27.69;100.00
6028;BME280;3042;43.194;27.646;2023-05-24T05:56:45;101362.59;;;27.53;100.00
6028;BME280;3042;43.194;27.646;2023-05-24T05:59:13;101325.81;;;27.29;100.00
6028;BME280;3042;43.194;27.646;2023-05-24T06:01:43;101358.59;;;27.26;100.00
6028;BME280;3042;43.194;27.646;2023-05-24T06:04:11;101371.06;;;27.21;100.00
6028;BME280;3042;43.194;27.646;2023-05-24T06:06:41;101364.13;;;27.09;100.00
6028;BME280;3042;43.194;27.646;2023-05-24T06:09:11;101364.91;;;27.14;100.00
6028;BME280;3042;43.194;27.646;2023-05-24T06:11:44;101036.22;;;25.15;100.00
6028;BME280;3042;43.194;27.646;2023-05-24T06:14:12;101294.84;;;26.66;100.00
6028;BME280;3042;43.194;27.646;2023-05-24T06:16:46;101343.31;;;27.42;100.00
6028;BME280;3042;43.194;27.646;2023-05-24T06:19:15;101207.25;;;26.73;100.00
6028;BME280;3042;43.194;27.646;2023-05-24T06:21:43;101147.97;;;26.78;100.00
6028;BME280;3042;43.194;27.646;2023-05-24T06:24:12;101323.00;;;27.92;100.00
6028;BME280;3042;43.194;27.646;2023-05-24T06:26:43;101279.31;;;27.57;100.00
6028;BME280;3042;43.194;27.646;2023-05-24T06:29:10;101211.59;;;27.33;100.00
6028;BME280;3042;43.194;27.646;2023-05-24T06:31:42;101328.13;;;28.02;100.00
6028;BME280;3042;43.194;27.646;2023-05-24T06:34:13;101322.47;;;28.20;100.00
6028;BME280;3042;43.194;27.646;2023-05-24T06:36:42;101323.25;;;28.25;100.00
6028;BME280;3042;43.194;27.646;2023-05-24T06:39:12;101228.38;;;27.85;100.00
6028;BME280;3042;43.194;27.646;2023-05-24T06:41:42;101316.50;;;28.54;100.00
6028;BME280;3042;43.194;27.646;2023-05-24T06:44:11;101239.22;;;28.18;100.00
6028;BME280;3042;43.194;27.646;2023-05-24T06:46:41;101312.78;;;28.61;100.00
6028;BME280;3042;43.194;27.646;2023-05-24T06:49:14;101320.06;;;28.53;100.00
6028;BME280;3042;43.194;27.646;2023-05-24T06:51:43;101334.63;;;28.33;100.00
6028;BME280;3042;43.194;27.646;2023-05-24T06:54:11;101217.34;;;27.58;100.00
6028;BME280;3042;43.194;27.646;2023-05-24T06:56:38;101333.09;;;28.20;100.00
6028;BME280;3042;43.194;27.646;2023-05-24T06:59:05;101331.88;;;28.38;100.00
6028;BME280;3042;43.194;27.646;2023-05-24T07:01:35;101330.81;;;28.47;100.00
6028;BME280;3042;43.194;27.646;2023-05-24T07:04:04;101230.97;;;27.88;100.00
6028;BME280;3042;43.194;27.646;2023-05-24T07:06:32;101247.97;;;28.23;100.00
6028;BME280;3042;43.194;27.646;2023-05-24T07:09:02;101309.59;;;28.87;100.00
6028;BME280;3042;43.194;27.646;2023-05-24T07:11:29;101308.25;;;29.05;100.00
6028;BME280;3042;43.194;27.646;2023-05-24T07:13:58;101313.56;;;29.08;100.00
6028;BME280;3042;43.194;27.646;2023-05-24T07:16:27;101306.13;;;29.22;100.00
6028;BME280;3042;43.194;27.646;2023-05-24T07:18:54;101302.84;;;29.47;100.00
6028;BME280;3042;43.194;27.646;2023-05-24T07:21:24;101308.13;;;29.49;100.00
6028;BME280;3042;43.194;27.646;2023-05-24T07:23:53;101306.13;;;29.57;100.00
6028;BME280;3042;43.194;27.646;2023-05-24T07:26:20;101313.13;;;29.62;100.00
6028;BME280;3042;43.194;27.646;2023-05-24T07:28:48;101321.28;;;29.55;100.00
6028;BME280;3042;43.194;27.646;2023-05-24T07:31:16;101316.56;;;29.67;100.00
6028;BME280;3042;43.194;27.646;2023-05-24T07:33:43;101325.78;;;29.53;100.00
6028;BME280;3042;43.194;27.646;2023-05-24T07:36:10;101317.50;;;29.63;100.00
6028;BME280;3042;43.194;27.646;2023-05-24T07:38:37;101328.94;;;29.33;100.00
6028;BME280;3042;43.194;27.646;2023-05-24T07:41:08;101323.38;;;29.42;100.00
6028;BME280;3042;43.194;27.646;2023-05-24T07:43:36;101328.50;;;29.14;100.00
6028;BME280;3042;43.194;27.646;2023-05-24T07:46:04;101327.63;;;29.13;100.00
6028;BME280;3042;43.194;27.646;2023-05-24T07:48:31;101246.41;;;28.95;100.00
6028;BME280;3042;43.194;27.646;2023-05-24T07:51:00;101301.75;;;29.54;100.00
6028;BME280;3042;43.194;27.646;2023-05-24T07:53:30;101115.28;;;28.89;100.00
6028;BME280;3042;43.194;27.646;2023-05-24T07:56:40;100773.09;;;26.82;100.00
6028;BME280;3042;43.194;27.646;2023-05-24T07:59:07;101280.44;;;30.21;100.00
6028;BME280;3042;43.194;27.646;2023-05-24T08:01:34;101305.91;;;30.00;100.00
6028;BME280;3042;43.194;27.646;2023-05-24T08:04:01;101288.81;;;30.40;100.00
6028;BME280;3042;43.194;27.646;2023-05-24T08:06:30;101021.13;;;29.27;100.00
6028;BME280;3042;43.194;27.646;2023-05-24T08:09:04;101270.25;;;30.95;100.00
6028;BME280;3042;43.194;27.646;2023-05-24T08:11:34;101210.16;;;30.82;100.00
6028;BME280;3042;43.194;27.646;2023-05-24T08:14:02;101297.56;;;30.74;100.00
6028;BME280;3042;43.194;27.646;2023-05-24T08:16:30;101233.00;;;30.01;100.00
6028;BME280;3042;43.194;27.646;2023-05-24T08:19:02;101054.06;;;29.24;100.00
6028;BME280;3042;43.194;27.646;2023-05-24T08:21:33;101276.44;;;30.67;100.00
6028;BME280;3042;43.194;27.646;2023-05-24T08:24:02;101294.88;;;30.75;100.00
6028;BME280;3042;43.194;27.646;2023-05-24T08:26:29;100817.53;;;27.86;100.00
6028;BME280;3042;43.194;27.646;2023-05-24T08:28:56;101276.94;;;31.08;100.00
6028;BME280;3042;43.194;27.646;2023-05-24T08:31:23;101297.00;;;30.64;100.00
6028;BME280;3042;43.194;27.646;2023-05-24T08:37:24;101025.91;;;29.77;100.00
6028;BME280;3042;43.194;27.646;2023-05-24T08:39:53;101143.34;;;30.83;100.00
6028;BME280;3042;43.194;27.646;2023-05-24T08:42:24;101252.59;;;30.91;100.00
6028;BME280;3042;43.194;27.646;2023-05-24T08:44:59;101272.28;;;31.15;100.00
6028;BME280;3042;43.194;27.646;2023-05-24T08:47:30;101264.78;;;31.26;100.00
6028;BME280;3042;43.194;27.646;2023-05-24T08:49:58;101283.94;;;30.84;100.00
6028;BME280;3042;43.194;27.646;2023-05-24T08:52:28;101225.78;;;30.36;100.00
6028;BME280;3042;43.194;27.646;2023-05-24T08:54:57;101226.06;;;30.57;100.00
6028;BME280;3042;43.194;27.646;2023-05-24T08:57:26;101262.72;;;31.34;100.00
6028;BME280;3042;43.194;27.646;2023-05-24T08:59:53;101274.00;;;31.16;100.00
6028;BME280;3042;43.194;27.646;2023-05-24T09:02:20;101227.66;;;31.45;100.00
6028;BME280;3042;43.194;27.646;2023-05-24T09:04:51;101242.91;;;31.92;100.00
6028;BME280;3042;43.194;27.646;2023-05-24T09:07:21;101268.72;;;31.43;100.00
6028;BME280;3042;43.194;27.646;2023-05-24T09:09:57;101164.44;;;30.92;100.00
6028;BME280;3042;43.194;27.646;2023-05-24T09:12:25;101177.06;;;31.41;100.00
6028;BME280;3042;43.194;27.646;2023-05-24T09:14:53;101240.06;;;31.46;100.00
6028;BME280;3042;43.194;27.646;2023-05-24T09:17:21;101272.47;;;31.62;100.00
6028;BME280;3042;43.194;27.646;2023-05-24T09:19:49;101273.81;;;31.49;100.00
6028;BME280;3042;43.194;27.646;2023-05-24T09:22:18;101206.50;;;31.64;100.00
6028;BME280;3042;43.194;27.646;2023-05-24T09:24:48;101251.03;;;31.89;100.00
6028;BME280;3042;43.194;27.646;2023-05-24T09:27:21;101189.59;;;31.64;100.00
6028;BME280;3042;43.194;27.646;2023-05-24T09:29:50;101113.47;;;31.25;100.00
6028;BME280;3042;43.194;27.646;2023-05-24T09:32:19;101164.25;;;31.74;100.00
6028;BME280;3042;43.194;27.646;2023-05-24T09:34:50;101245.50;;;32.18;100.00
6028;BME280;3042;43.194;27.646;2023-05-24T09:37:19;101233.63;;;32.49;100.00
6028;BME280;3042;43.194;27.646;2023-05-24T09:39:48;101230.78;;;32.54;100.00
6028;BME280;3042;43.194;27.646;2023-05-24T09:42:19;101179.44;;;31.99;100.00
6028;BME280;3042;43.194;27.646;2023-05-24T09:44:49;101185.19;;;32.33;100.00
6028;BME280;3042;43.194;27.646;2023-05-24T09:47:27;101265.72;;;32.02;100.00
6028;BME280;3042;43.194;27.646;2023-05-24T09:49:55;101293.22;;;31.27;100.00
6028;BME280;3042;43.194;27.646;2023-05-24T09:52:22;101288.50;;;31.36;100.00
6028;BME280;3042;43.194;27.646;2023-05-24T09:54:50;101290.84;;;31.18;100.00
6028;BME280;3042;43.194;27.646;2023-05-24T09:57:18;101288.09;;;31.21;100.00
6028;BME280;3042;43.194;27.646;2023-05-24T09:59:48;101286.63;;;31.11;100.00
6028;BME280;3042;43.194;27.646;2023-05-24T10:02:19;101211.34;;;30.14;100.00
6028;BME280;3042;43.194;27.646;2023-05-24T10:04:57;101337.56;;;30.13;100.00
6028;BME280;3042;43.194;27.646;2023-05-24T10:07:25;101332.78;;;29.19;100.00
6028;BME280;3042;43.194;27.646;2023-05-24T10:09:57;101340.41;;;28.96;100.00
6028;BME280;3042;43.194;27.646;2023-05-24T10:12:27;101336.31;;;28.81;100.00
6028;BME280;3042;43.194;27.646;2023-05-24T10:14:54;101171.28;;;27.10;100.00
6028;BME280;3042;43.194;27.646;2023-05-24T10:17:24;101332.38;;;27.61;100.00
6028;BME280;3042;43.194;27.646;2023-05-24T10:19:52;101339.69;;;27.46;100.00
6028;BME280;3042;43.194;27.646;2023-05-24T10:22:20;101350.84;;;27.08;100.00
6028;BME280;3042;43.194;27.646;2023-05-24T10:24:49;101336.59;;;27.16;100.00
6028;BME280;3042;43.194;27.646;2023-05-24T10:27:26;101180.94;;;25.92;100.00
6028;BME280;3042;43.194;27.646;2023-05-24T10:30:06;101304.44;;;27.38;100.00
6028;BME280;3042;43.194;27.646;2023-05-24T10:32:41;101245.47;;;27.21;100.00
6028;BME280;3042;43.194;27.646;2023-05-24T10:35:10;101328.56;;;27.77;100.00
6028;BME280;3042;43.194;27.646;2023-05-24T10:37:39;101321.09;;;28.01;100.00
6028;BME280;3042;43.194;27.646;2023-05-24T10:40:15;101284.34;;;28.21;100.00
6028;BME280;3042;43.194;27.646;2023-05-24T10:42:45;101317.13;;;28.65;100.00
6028;BME280;3042;43.194;27.646;2023-05-24T10:45:31;101327.19;;;28.51;100.00
6028;BME280;3042;43.194;27.646;2023-05-24T10:48:10;101329.31;;;28.33;100.00
6028;BME280;3042;43.194;27.646;2023-05-24T10:50:55;101100.81;;;27.43;100.00
6028;BME280;3042;43.194;27.646;2023-05-24T10:53:26;101296.72;;;28.67;100.00
6028;BME280;3042;43.194;27.646;2023-05-24T10:55:56;100938.31;;;26.39;100.00
6028;BME280;3042;43.194;27.646;2023-05-24T10:58:27;101250.34;;;28.79;100.00
6028;BME280;3042;43.194;27.646;2023-05-24T11:01:13;101293.16;;;29.09;100.00
6028;BME280;3042;43.194;27.646;2023-05-24T11:03:40;101261.41;;;28.98;100.00
6028;BME280;3042;43.194;27.646;2023-05-24T11:06:08;101120.69;;;28.11;100.00
6028;BME280;3042;43.194;27.646;2023-05-24T11:08:40;101293.06;;;29.48;100.00
6028;BME280;3042;43.194;27.646;2023-05-24T11:11:10;101139.97;;;28.94;100.00
6028;BME280;3042;43.194;27.646;2023-05-24T11:13:39;101302.31;;;30.01;100.00
6028;BME280;3042;43.194;27.646;2023-05-24T11:16:07;101239.19;;;30.03;100.00
6028;BME280;3042;43.194;27.646;2023-05-24T11:18:37;101303.34;;;29.97;100.00
6028;BME280;3042;43.194;27.646;2023-05-24T11:21:04;101195.75;;;29.69;100.00
6028;BME280;3042;43.194;27.646;2023-05-24T11:23:33;101267.50;;;30.68;100.00
6028;BME280;3042;43.194;27.646;2023-05-24T11:26:01;101262.16;;;30.68;100.00
6028;BME280;3042;43.194;27.646;2023-05-24T11:28:30;101273.13;;;30.59;100.00
6028;BME280;3042;43.194;27.646;2023-05-24T11:31:07;101263.53;;;30.82;100.00
6028;BME280;3042;43.194;27.646;2023-05-24T11:33:34;101258.41;;;31.04;100.00
6028;BME280;3042;43.194;27.646;2023-05-24T11:36:09;100876.31;;;29.33;100.00
6028;BME280;3042;43.194;27.646;2023-05-24T11:38:36;101244.66;;;31.43;100.00
6028;BME280;3042;43.194;27.646;2023-05-24T11:41:04;101255.00;;;31.25;100.00
6028;BME280;3042;43.194;27.646;2023-05-24T11:43:32;101248.75;;;31.53;100.00
6028;BME280;3042;43.194;27.646;2023-05-24T11:45:59;101103.34;;;30.57;100.00
6028;BME280;3042;43.194;27.646;2023-05-24T11:48:26;101161.25;;;31.08;100.00
6028;BME280;3042;43.194;27.646;2023-05-24T11:50:55;101247.25;;;31.44;100.00
6028;BME280;3042;43.194;27.646;2023-05-24T11:53:25;101143.03;;;30.67;100.00
6028;BME280;3042;43.194;27.646;2023-05-24T11:55:53;101268.03;;;31.09;100.00
6028;BME280;3042;43.194;27.646;2023-05-24T11:58:23;101266.25;;;31.08;100.00
6028;BME280;3042;43.194;27.646;2023-05-24T12:00:51;101268.16;;;31.05;100.00
6028;BME280;3042;43.194;27.646;2023-05-24T12:03:18;101271.84;;;31.01;100.00
6028;BME280;3042;43.194;27.646;2023-05-24T12:05:46;101223.09;;;30.96;100.00
6028;BME280;3042;43.194;27.646;2023-05-24T12:08:13;101219.28;;;30.75;100.00
6028;BME280;3042;43.194;27.646;2023-05-24T12:10:42;101252.69;;;31.43;100.00
6028;BME280;3042;43.194;27.646;2023-05-24T12:13:19;101259.84;;;31.14;100.00
6028;BME280;3042;43.194;27.646;2023-05-24T12:15:49;101130.69;;;30.63;100.00
6028;BME280;3042;43.194;27.646;2023-05-24T12:18:17;101202.22;;;31.33;100.00
6028;BME280;3042;43.194;27.646;2023-05-24T12:20:45;101234.91;;;31.42;100.00
6028;BME280;3042;43.194;27.646;2023-05-24T12:23:13;101215.44;;;31.63;100.00
6028;BME280;3042;43.194;27.646;2023-05-24T12:25:42;101223.19;;;31.46;100.00
6028;BME280;3042;43.194;27.646;2023-05-24T12:28:11;101228.81;;;31.37;100.00
6028;BME280;3042;43.194;27.646;2023-05-24T12:30:38;101220.22;;;31.53;100.00
6028;BME280;3042;43.194;27.646;2023-05-24T12:33:08;101233.03;;;31.17;100.00
6028;BME280;3042;43.194;27.646;2023-05-24T12:35:39;101241.84;;;30.92;100.00
6028;BME280;3042;43.194;27.646;2023-05-24T12:38:08;101237.13;;;30.73;100.00
6028;BME280;3042;43.194;27.646;2023-05-24T12:40:36;101236.72;;;30.86;100.00
6028;BME280;3042;43.194;27.646;2023-05-24T12:43:05;101018.44;;;30.16;100.00
6028;BME280;3042;43.194;27.646;2023-05-24T12:45:32;101215.84;;;31.26;100.00
6028;BME280;3042;43.194;27.646;2023-05-24T12:48:02;101105.91;;;30.60;100.00
6028;BME280;3042;43.194;27.646;2023-05-24T12:50:29;101208.19;;;31.15;100.00
6028;BME280;3042;43.194;27.646;2023-05-24T12:52:56;101191.53;;;31.33;100.00
6028;BME280;3042;43.194;27.646;2023-05-24T12:55:25;101204.09;;;31.05;100.00
6028;BME280;3042;43.194;27.646;2023-05-24T12:57:53;101215.22;;;30.91;100.00
6028;BME280;3042;43.194;27.646;2023-05-24T13:00:23;101187.63;;;31.44;100.00
6028;BME280;3042;43.194;27.646;2023-05-24T13:02:52;101196.41;;;31.21;100.00
6028;BME280;3042;43.194;27.646;2023-05-24T13:05:23;101205.25;;;30.96;100.00